createdAt,value
2016-04-01T00:00:05.689Z,0
2016-04-01T00:01:05.706Z,0
2016-04-01T00:02:05.694Z,0
2016-04-01T00:03:05.759Z,0
2016-04-01T00:04:05.699Z,0
2016-04-01T00:05:05.702Z,0
2016-04-01T00:06:05.719Z,0
2016-04-01T00:07:05.707Z,0
2016-04-01T00:08:05.710Z,0
2016-04-01T00:09:05.697Z,0
2016-04-01T00:10:05.761Z,0
2016-04-01T00:11:05.702Z,0
2016-04-01T00:12:05.705Z,0
2016-04-01T00:13:05.724Z,0
2016-04-01T00:14:05.710Z,0
2016-04-01T00:15:05.713Z,0
2016-04-01T00:16:05.715Z,0
2016-04-01T00:17:05.735Z,0
2016-04-01T00:18:05.752Z,0
2016-04-01T00:19:05.770Z,0
2016-04-01T00:20:08.961Z,0
2016-04-01T00:21:05.698Z,0
2016-04-01T00:22:05.700Z,0
2016-04-01T00:23:05.719Z,0
2016-04-01T00:24:05.706Z,0
2016-04-01T00:25:05.709Z,0
2016-04-01T00:26:05.727Z,0
2016-04-01T00:27:05.698Z,0
2016-04-01T00:28:05.701Z,0
2016-04-01T00:29:05.703Z,0
2016-04-01T00:30:05.706Z,0
2016-04-01T00:31:05.725Z,0
2016-04-01T00:32:05.742Z,0
2016-04-01T00:33:05.778Z,0
2016-04-01T00:34:05.717Z,0
2016-04-01T00:35:05.719Z,0
2016-04-01T00:36:05.723Z,0
2016-04-01T00:37:05.709Z,0
2016-04-01T00:38:05.711Z,0
2016-04-01T00:39:05.700Z,0
2016-04-01T00:40:05.702Z,0
2016-04-01T00:41:05.720Z,0
2016-04-01T00:42:05.692Z,0
2016-04-01T00:43:05.694Z,0
2016-04-01T00:44:05.713Z,0
2016-04-01T00:45:05.730Z,0
2016-04-01T00:46:05.733Z,0
2016-04-01T00:47:05.721Z,0
2016-04-01T00:48:05.707Z,0
2016-04-01T00:49:05.710Z,0
2016-04-01T00:50:05.729Z,0
2016-04-01T00:51:05.716Z,0
2016-04-01T00:52:05.704Z,0
2016-04-01T00:53:05.721Z,0
2016-04-01T00:54:05.708Z,0
2016-04-01T00:55:05.727Z,0
2016-04-01T00:56:05.730Z,0
2016-04-01T00:57:05.717Z,0
2016-04-01T00:58:05.720Z,0
2016-04-01T00:59:05.722Z,0
2016-04-01T01:00:05.725Z,0
2016-04-01T01:01:05.728Z,0
2016-04-01T01:02:05.731Z,0
2016-04-01T01:03:05.733Z,0
2016-04-01T01:04:05.720Z,0
2016-04-01T01:05:05.723Z,0
2016-04-01T01:06:05.725Z,0
2016-04-01T01:07:05.728Z,0
2016-04-01T01:08:05.714Z,0
2016-04-01T01:09:05.717Z,0
2016-04-01T01:10:05.720Z,0
2016-04-01T01:11:05.739Z,0
2016-04-01T01:12:05.741Z,0
2016-04-01T01:13:05.728Z,0
2016-04-01T01:14:05.731Z,0
2016-04-01T01:15:05.718Z,0
2016-04-01T01:16:05.721Z,0
2016-04-01T01:17:05.724Z,0
2016-04-01T01:18:05.726Z,0
2016-04-01T01:19:05.697Z,0
2016-04-01T01:20:05.716Z,0
2016-04-01T01:21:05.718Z,0
2016-04-01T01:22:05.721Z,0
2016-04-01T01:23:05.740Z,0
2016-04-01T01:24:05.726Z,0
2016-04-01T01:25:05.729Z,0
2016-04-01T01:26:05.732Z,0
2016-04-01T01:27:05.718Z,0
2016-04-01T01:28:05.721Z,0
2016-04-01T01:29:05.724Z,0
2016-04-01T01:30:05.727Z,0
2016-04-01T01:31:05.729Z,0
2016-04-01T01:32:05.717Z,0
2016-04-01T01:33:05.735Z,0
2016-04-01T01:34:05.722Z,0
2016-04-01T01:35:05.725Z,0
2016-04-01T01:36:05.727Z,0
2016-04-01T01:37:05.730Z,0
2016-04-01T01:38:05.733Z,0
2016-04-01T01:39:05.736Z,0
2016-04-01T01:40:05.722Z,0
2016-04-01T01:41:05.725Z,0
2016-04-01T01:42:05.713Z,0
2016-04-01T01:43:05.730Z,0
2016-04-01T01:44:05.733Z,0
2016-04-01T01:45:05.720Z,0
2016-04-01T01:46:05.724Z,0
2016-04-01T01:47:05.726Z,0
2016-04-01T01:48:05.729Z,0
2016-04-01T01:49:05.716Z,0
2016-04-01T01:50:05.718Z,0
2016-04-01T01:51:05.737Z,0
2016-04-01T01:52:05.724Z,0
2016-04-01T01:53:05.742Z,0
2016-04-01T01:54:05.729Z,0
2016-04-01T01:55:05.732Z,0
2016-04-01T01:56:05.735Z,0
2016-04-01T01:57:05.737Z,0
2016-04-01T01:58:05.740Z,0
2016-04-01T01:59:05.743Z,0
2016-04-01T02:00:05.729Z,0
2016-04-01T02:01:05.732Z,0
2016-04-01T02:02:05.750Z,0
2016-04-01T02:03:05.722Z,0
2016-04-01T02:04:05.725Z,0
2016-04-01T02:05:05.742Z,0
2016-04-01T02:06:05.745Z,0
2016-04-01T02:07:05.733Z,0
2016-04-01T02:08:05.709Z,0
2016-04-01T02:09:05.727Z,0
2016-04-01T02:10:05.730Z,0
2016-04-01T02:11:05.733Z,0
2016-04-01T02:12:05.752Z,0
2016-04-01T02:13:05.738Z,0
2016-04-01T02:14:05.710Z,0
2016-04-01T02:15:05.727Z,0
2016-04-01T02:16:05.574Z,0
2016-04-01T02:17:05.733Z,0
2016-04-01T02:18:05.721Z,0
2016-04-01T02:19:05.771Z,0
2016-04-01T02:20:05.726Z,0
2016-04-01T02:21:05.743Z,0
2016-04-01T02:22:05.715Z,0
2016-04-01T02:23:05.734Z,0
2016-04-01T02:24:05.721Z,0
2016-04-01T02:25:05.739Z,0
2016-04-01T02:26:05.757Z,0
2016-04-01T02:27:05.729Z,0
2016-04-01T02:28:05.748Z,0
2016-04-01T02:29:05.751Z,0
2016-04-01T02:30:05.753Z,0
2016-04-01T02:31:05.724Z,0
2016-04-01T02:32:05.742Z,0
2016-04-01T02:33:05.776Z,0
2016-04-01T02:34:05.731Z,0
2016-04-01T02:35:05.734Z,0
2016-04-01T02:36:05.737Z,0
2016-04-01T02:37:05.740Z,0
2016-04-01T02:38:05.743Z,0
2016-04-01T02:39:05.730Z,0
2016-04-01T02:40:05.733Z,0
2016-04-01T02:41:05.719Z,0
2016-04-01T02:42:05.738Z,0
2016-04-01T02:43:05.724Z,0
2016-04-01T02:44:05.571Z,0
2016-04-01T02:45:05.746Z,0
2016-04-01T02:46:05.748Z,0
2016-04-01T02:47:05.751Z,0
2016-04-01T02:48:05.754Z,0
2016-04-01T02:49:05.740Z,0
2016-04-01T02:50:05.743Z,0
2016-04-01T02:51:05.715Z,0
2016-04-01T02:52:05.718Z,0
2016-04-01T02:53:05.721Z,0
2016-04-01T02:54:05.755Z,0
2016-04-01T02:55:05.742Z,0
2016-04-01T02:56:05.729Z,0
2016-04-01T02:57:05.732Z,0
2016-04-01T02:58:05.718Z,0
2016-04-01T02:59:05.737Z,0
2016-04-01T03:00:05.740Z,0
2016-04-01T03:01:05.742Z,0
2016-04-01T03:02:05.729Z,0
2016-04-01T03:03:05.748Z,0
2016-04-01T03:04:05.734Z,0
2016-04-01T03:05:05.753Z,0
2016-04-01T03:06:05.739Z,0
2016-04-01T03:07:05.728Z,0
2016-04-01T03:08:05.730Z,0
2016-04-01T03:09:05.732Z,0
2016-04-01T03:10:05.736Z,0
2016-04-01T03:11:05.972Z,0
2016-04-01T03:12:05.725Z,0
2016-04-01T03:13:05.775Z,0
2016-04-01T03:14:05.746Z,0
2016-04-01T03:15:05.749Z,0
2016-04-01T03:16:05.735Z,0
2016-04-01T03:17:05.738Z,0
2016-04-01T03:18:05.740Z,0
2016-04-01T03:19:05.743Z,0
2016-04-01T03:20:05.746Z,0
2016-04-01T03:21:05.733Z,0
2016-04-01T03:22:05.580Z,0
2016-04-01T03:23:05.738Z,0
2016-04-01T03:24:05.726Z,0
2016-04-01T03:25:05.744Z,0
2016-04-01T03:26:05.746Z,0
2016-04-01T03:27:05.734Z,0
2016-04-01T03:28:05.721Z,0
2016-04-01T03:29:05.724Z,0
2016-04-01T03:30:05.726Z,0
2016-04-01T03:31:05.729Z,0
2016-04-01T03:32:05.732Z,0
2016-04-01T03:33:05.766Z,0
2016-04-01T03:34:05.736Z,0
2016-04-01T03:35:05.739Z,0
2016-04-01T03:36:05.742Z,0
2016-04-01T03:37:05.745Z,0
2016-04-01T03:38:05.748Z,0
2016-04-01T03:39:05.750Z,0
2016-04-01T03:40:05.753Z,0
2016-04-01T03:41:05.725Z,0
2016-04-01T03:42:05.758Z,0
2016-04-01T03:43:05.761Z,0
2016-04-01T03:44:05.764Z,0
2016-04-01T03:45:05.767Z,0
2016-04-01T03:46:05.613Z,0
2016-04-01T03:47:05.757Z,0
2016-04-01T03:48:05.744Z,0
2016-04-01T03:49:05.746Z,0
2016-04-01T03:50:05.733Z,0
2016-04-01T03:51:05.736Z,0
2016-04-01T03:52:05.723Z,0
2016-04-01T03:53:05.726Z,0
2016-04-01T03:54:05.744Z,0
2016-04-01T03:55:05.747Z,0
2016-04-01T03:56:05.734Z,0
2016-04-01T03:57:05.736Z,0
2016-04-01T03:58:05.739Z,0
2016-04-01T03:59:05.742Z,0
2016-04-01T04:00:05.728Z,0
2016-04-01T04:01:05.715Z,0
2016-04-01T04:02:05.734Z,0
2016-04-01T04:03:06.034Z,0
2016-04-01T04:04:05.740Z,0
2016-04-01T04:05:05.742Z,0
2016-04-01T04:06:05.745Z,0
2016-04-01T04:07:05.732Z,0
2016-04-01T04:08:05.734Z,0
2016-04-01T04:09:05.737Z,0
2016-04-01T04:10:05.756Z,0
2016-04-01T04:11:05.758Z,0
2016-04-01T04:12:05.745Z,0
2016-04-01T04:13:05.748Z,0
2016-04-01T04:14:05.766Z,0
2016-04-01T04:15:05.738Z,0
2016-04-01T04:16:05.741Z,0
2016-04-01T04:17:05.759Z,0
2016-04-01T04:18:05.746Z,0
2016-04-01T04:19:05.733Z,0
2016-04-01T04:20:05.736Z,0
2016-04-01T04:21:05.738Z,0
2016-04-01T04:22:05.741Z,0
2016-04-01T04:23:05.760Z,0
2016-04-01T04:24:05.763Z,0
2016-04-01T04:25:05.749Z,0
2016-04-01T04:26:05.580Z,0
2016-04-01T04:27:05.740Z,0
2016-04-01T04:28:05.758Z,0
2016-04-01T04:29:05.745Z,0
2016-04-01T04:30:05.732Z,0
2016-04-01T04:31:05.735Z,0
2016-04-01T04:32:05.737Z,0
2016-04-01T04:33:05.740Z,0
2016-04-01T04:34:05.742Z,0
2016-04-01T04:35:05.745Z,0
2016-04-01T04:36:05.748Z,0
2016-04-01T04:37:05.734Z,0
2016-04-01T04:38:05.737Z,0
2016-04-01T04:39:05.756Z,0
2016-04-01T04:40:10.492Z,0
2016-04-01T04:41:05.745Z,0
2016-04-01T04:42:05.748Z,0
2016-04-01T04:43:05.751Z,0
2016-04-01T04:44:05.754Z,0
2016-04-01T04:45:05.741Z,0
2016-04-01T04:46:05.728Z,0
2016-04-01T04:47:05.746Z,0
2016-04-01T04:48:05.749Z,0
2016-04-01T04:49:05.736Z,0
2016-04-01T04:50:05.738Z,0
2016-04-01T04:51:05.741Z,0
2016-04-01T04:52:05.744Z,0
2016-04-01T04:53:05.746Z,0
2016-04-01T04:54:05.765Z,0
2016-04-01T04:55:05.768Z,0
2016-04-01T04:56:05.754Z,0
2016-04-01T04:57:05.742Z,0
2016-04-01T04:58:05.760Z,0
2016-04-01T04:59:05.746Z,0
2016-04-01T05:00:05.750Z,0
2016-04-01T05:01:05.737Z,0
2016-04-01T05:02:05.754Z,0
2016-04-01T05:03:05.743Z,0
2016-04-01T05:04:05.745Z,0
2016-04-01T05:05:05.732Z,0
2016-04-01T05:06:05.781Z,0
2016-04-01T05:07:05.737Z,0
2016-04-01T05:08:05.724Z,0
2016-04-01T05:09:05.758Z,0
2016-04-01T05:10:05.745Z,0
2016-04-01T05:11:05.748Z,0
2016-04-01T05:12:05.750Z,0
2016-04-01T05:13:05.739Z,0
2016-04-01T05:14:05.741Z,0
2016-04-01T05:15:05.743Z,0
2016-04-01T05:16:05.747Z,0
2016-04-01T05:17:05.749Z,0
2016-04-01T05:18:05.751Z,0
2016-04-01T05:19:05.738Z,0
2016-04-01T05:20:05.741Z,0
2016-04-01T05:21:05.744Z,0
2016-04-01T05:22:05.747Z,0
2016-04-01T05:23:05.749Z,0
2016-04-01T05:24:05.783Z,5
2016-04-01T05:25:05.755Z,5
2016-04-01T05:26:05.774Z,5
2016-04-01T05:27:05.760Z,5
2016-04-01T05:28:05.762Z,5
2016-04-01T05:29:05.765Z,5
2016-04-01T05:30:05.752Z,5
2016-04-01T05:31:05.787Z,5
2016-04-01T05:32:05.773Z,5
2016-04-01T05:33:05.760Z,5
2016-04-01T05:34:05.748Z,5
2016-04-01T05:35:05.734Z,5
2016-04-01T05:36:05.753Z,5
2016-04-01T05:37:05.740Z,5
2016-04-01T05:38:05.743Z,5
2016-04-01T05:39:05.746Z,5
2016-04-01T05:40:05.764Z,5
2016-04-01T05:41:05.734Z,5
2016-04-01T05:42:05.770Z,5
2016-04-01T05:43:05.756Z,5
2016-04-01T05:44:05.775Z,5
2016-04-01T05:45:05.761Z,5
2016-04-01T05:46:05.748Z,5
2016-04-01T05:47:05.767Z,5
2016-04-01T05:48:05.754Z,5
2016-04-01T05:49:05.616Z,5
2016-04-01T05:50:05.743Z,5
2016-04-01T05:51:05.730Z,5
2016-04-01T05:52:05.764Z,5
2016-04-01T05:53:05.799Z,10
2016-04-01T05:54:05.786Z,10
2016-04-01T05:55:05.788Z,10
2016-04-01T05:56:05.760Z,10
2016-04-01T05:57:05.763Z,10
2016-04-01T05:58:05.749Z,10
2016-04-01T05:59:05.768Z,10
2016-04-01T06:00:05.771Z,10
2016-04-01T06:01:05.757Z,10
2016-04-01T06:02:05.761Z,15
2016-04-01T06:03:05.762Z,15
2016-04-01T06:04:05.750Z,15
2016-04-01T06:05:05.768Z,10
2016-04-01T06:06:05.755Z,10
2016-04-01T06:07:05.759Z,10
2016-04-01T06:08:05.764Z,10
2016-04-01T06:09:05.736Z,10
2016-04-01T06:10:05.755Z,10
2016-04-01T06:11:05.758Z,10
2016-04-01T06:12:05.760Z,10
2016-04-01T06:13:05.747Z,15
2016-04-01T06:14:05.750Z,15
2016-04-01T06:15:05.753Z,15
2016-04-01T06:16:05.755Z,15
2016-04-01T06:17:05.774Z,15
2016-04-01T06:18:05.760Z,15
2016-04-01T06:19:05.748Z,15
2016-04-01T06:20:05.766Z,20
2016-04-01T06:21:05.753Z,20
2016-04-01T06:22:05.755Z,15
2016-04-01T06:23:05.742Z,15
2016-04-01T06:24:05.746Z,15
2016-04-01T06:25:05.748Z,15
2016-04-01T06:26:05.750Z,15
2016-04-01T06:27:05.753Z,15
2016-04-01T06:28:05.756Z,15
2016-04-01T06:29:05.790Z,15
2016-04-01T06:30:05.777Z,10
2016-04-01T06:31:05.780Z,10
2016-04-01T06:32:05.783Z,15
2016-04-01T06:33:05.770Z,15
2016-04-01T06:34:05.757Z,10
2016-04-01T06:35:05.759Z,10
2016-04-01T06:36:05.762Z,10
2016-04-01T06:37:05.750Z,10
2016-04-01T06:38:05.752Z,10
2016-04-01T06:39:05.755Z,10
2016-04-01T06:40:05.758Z,10
2016-04-01T06:41:05.760Z,10
2016-04-01T06:42:05.810Z,10
2016-04-01T06:43:05.780Z,10
2016-04-01T06:44:05.783Z,10
2016-04-01T06:45:05.771Z,10
2016-04-01T06:46:05.773Z,10
2016-04-01T06:47:05.760Z,10
2016-04-01T06:48:05.763Z,10
2016-04-01T06:49:05.782Z,10
2016-04-01T06:50:05.769Z,15
2016-04-01T06:51:05.771Z,15
2016-04-01T06:52:05.774Z,20
2016-04-01T06:53:05.761Z,20
2016-04-01T06:54:05.763Z,20
2016-04-01T06:55:05.751Z,20
2016-04-01T06:56:05.754Z,20
2016-04-01T06:57:05.771Z,20
2016-04-01T06:58:05.806Z,25
2016-04-01T06:59:05.776Z,20
2016-04-01T07:00:05.779Z,25
2016-04-01T07:01:05.767Z,25
2016-04-01T07:02:05.785Z,30
2016-04-01T07:03:05.772Z,30
2016-04-01T07:04:05.790Z,35
2016-04-01T07:05:05.778Z,40
2016-04-01T07:06:05.781Z,40
2016-04-01T07:07:05.783Z,45
2016-04-01T07:08:05.785Z,45
2016-04-01T07:09:05.772Z,45
2016-04-01T07:10:05.775Z,50
2016-04-01T07:11:05.809Z,55
2016-04-01T07:12:05.797Z,60
2016-04-01T07:13:05.783Z,65
2016-04-01T07:14:05.771Z,65
2016-04-01T07:15:05.757Z,60
2016-04-01T07:16:05.760Z,55
2016-04-01T07:17:05.794Z,55
2016-04-01T07:18:05.782Z,55
2016-04-01T07:19:05.816Z,55
2016-04-01T07:20:05.772Z,55
2016-04-01T07:21:05.774Z,60
2016-04-01T07:22:05.807Z,70
2016-04-01T07:23:05.795Z,75
2016-04-01T07:24:06.174Z,75
2016-04-01T07:25:05.768Z,70
2016-04-01T07:26:05.771Z,65
2016-04-01T07:27:05.774Z,60
2016-04-01T07:28:05.777Z,60
2016-04-01T07:29:05.779Z,60
2016-04-01T07:30:05.893Z,65
2016-04-01T07:31:05.817Z,75
2016-04-01T07:32:05.803Z,80
2016-04-01T07:33:05.791Z,80
2016-04-01T07:34:05.778Z,75
2016-04-01T07:35:05.781Z,75
2016-04-01T07:36:05.799Z,70
2016-04-01T07:37:05.787Z,70
2016-04-01T07:38:05.789Z,70
2016-04-01T07:39:05.792Z,70
2016-04-01T07:40:05.810Z,75
2016-04-01T07:41:05.797Z,75
2016-04-01T07:42:05.800Z,80
2016-04-01T07:43:05.787Z,80
2016-04-01T07:44:05.776Z,85
2016-04-01T07:45:05.762Z,95
2016-04-01T07:46:05.750Z,110
2016-04-01T07:47:05.737Z,110
2016-04-01T07:48:05.708Z,120
2016-04-01T07:49:05.721Z,115
2016-04-01T07:50:05.702Z,110
2016-04-01T07:51:05.715Z,110
2016-04-01T07:52:05.697Z,115
2016-04-01T07:53:05.711Z,120
2016-04-01T07:54:05.726Z,125
2016-04-01T07:55:05.680Z,135
2016-04-01T07:56:05.681Z,145
2016-04-01T07:57:05.713Z,150
2016-04-01T07:58:05.698Z,170
2016-04-01T07:59:05.685Z,175
2016-04-01T08:00:05.687Z,195
2016-04-01T08:01:05.704Z,215
2016-04-01T08:02:05.738Z,215
2016-04-01T08:03:05.708Z,220
2016-04-01T08:04:05.695Z,215
2016-04-01T08:05:05.697Z,235
2016-04-01T08:06:05.761Z,220
2016-04-01T08:07:05.702Z,210
2016-04-01T08:08:05.704Z,210
2016-04-01T08:09:05.691Z,215
2016-04-01T08:10:05.709Z,220
2016-04-01T08:11:05.727Z,215
2016-04-01T08:12:05.715Z,215
2016-04-01T08:13:05.687Z,215
2016-04-01T08:14:05.735Z,220
2016-04-01T08:15:05.723Z,225
2016-04-01T08:16:05.710Z,235
2016-04-01T08:17:05.712Z,235
2016-04-01T08:18:05.715Z,240
2016-04-01T08:19:05.718Z,215
2016-04-01T08:20:05.720Z,200
2016-04-01T08:21:05.723Z,180
2016-04-01T08:22:05.725Z,160
2016-04-01T08:23:05.759Z,155
2016-04-01T08:24:05.731Z,150
2016-04-01T08:25:05.719Z,155
2016-04-01T08:26:05.721Z,160
2016-04-01T08:27:05.723Z,165
2016-04-01T08:28:05.726Z,160
2016-04-01T08:29:05.745Z,160
2016-04-01T08:30:05.575Z,165
2016-04-01T08:31:05.750Z,170
2016-04-01T08:32:05.738Z,160
2016-04-01T08:33:05.740Z,155
2016-04-01T08:34:05.743Z,145
2016-04-01T08:35:05.746Z,130
2016-04-01T08:36:05.748Z,130
2016-04-01T08:37:05.751Z,135
2016-04-01T08:38:05.597Z,135
2016-04-01T08:39:05.756Z,135
2016-04-01T08:40:05.759Z,140
2016-04-01T08:41:05.762Z,140
2016-04-01T08:42:05.764Z,145
2016-04-01T08:43:05.751Z,155
2016-04-01T08:44:05.754Z,160
2016-04-01T08:45:05.773Z,155
2016-04-01T08:46:05.759Z,140
2016-04-01T08:47:05.778Z,135
2016-04-01T08:48:05.765Z,140
2016-04-01T08:49:05.767Z,150
2016-04-01T08:50:05.817Z,155
2016-04-01T08:51:05.632Z,165
2016-04-01T08:52:05.635Z,170
2016-04-01T08:53:05.778Z,170
2016-04-01T08:54:06.015Z,170
2016-04-01T08:55:05.643Z,170
2016-04-01T08:56:05.817Z,175
2016-04-01T08:57:05.789Z,190
2016-04-01T08:58:05.900Z,210
2016-04-01T08:59:05.794Z,215
2016-04-01T09:00:05.797Z,215
2016-04-01T09:01:05.815Z,215
2016-04-01T09:02:05.802Z,225
2016-04-01T09:03:05.805Z,230
2016-04-01T09:04:05.807Z,230
2016-04-01T09:05:05.826Z,230
2016-04-01T09:06:05.813Z,230
2016-04-01T09:07:05.816Z,250
2016-04-01T09:08:05.834Z,270
2016-04-01T09:09:05.837Z,290
2016-04-01T09:10:05.824Z,300
2016-04-01T09:11:05.842Z,285
2016-04-01T09:12:05.829Z,275
2016-04-01T09:13:08.035Z,300
2016-04-01T09:14:05.832Z,285
2016-04-01T09:15:05.834Z,285
2016-04-01T09:16:05.837Z,300
2016-04-01T09:17:05.840Z,300
2016-04-01T09:18:05.843Z,305
2016-04-01T09:19:05.845Z,285
2016-04-01T09:20:05.848Z,295
2016-04-01T09:21:05.851Z,300
2016-04-01T09:22:05.869Z,305
2016-04-01T09:23:05.856Z,305
2016-04-01T09:24:05.874Z,305
2016-04-01T09:25:05.877Z,310
2016-04-01T09:26:05.864Z,310
2016-04-01T09:27:05.866Z,300
2016-04-01T09:28:05.869Z,285
2016-04-01T09:29:05.872Z,270
2016-04-01T09:30:05.874Z,250
2016-04-01T09:31:05.877Z,245
2016-04-01T09:32:05.880Z,245
2016-04-01T09:33:05.899Z,255
2016-04-01T09:34:05.886Z,260
2016-04-01T09:35:05.905Z,265
2016-04-01T09:36:05.907Z,275
2016-04-01T09:37:05.910Z,280
2016-04-01T09:38:05.928Z,285
2016-04-01T09:39:05.930Z,280
2016-04-01T09:40:05.933Z,285
2016-04-01T09:41:05.920Z,285
2016-04-01T09:42:05.923Z,290
2016-04-01T09:43:05.926Z,300
2016-04-01T09:44:05.929Z,300
2016-04-01T09:45:05.946Z,295
2016-04-01T09:46:05.949Z,285
2016-04-01T09:47:05.952Z,275
2016-04-01T09:48:05.955Z,270
2016-04-01T09:49:05.958Z,265
2016-04-01T09:50:06.054Z,270
2016-04-01T09:51:05.963Z,270
2016-04-01T09:52:05.950Z,265
2016-04-01T09:53:05.968Z,265
2016-04-01T09:54:05.970Z,270
2016-04-01T09:55:05.958Z,270
2016-04-01T09:56:05.976Z,270
2016-04-01T09:57:05.995Z,275
2016-04-01T09:58:06.309Z,275
2016-04-01T09:59:06.000Z,270
2016-04-01T10:00:05.987Z,265
2016-04-01T10:01:06.052Z,260
2016-04-01T10:02:05.992Z,255
2016-04-01T10:03:05.994Z,245
2016-04-01T10:04:05.997Z,235
2016-04-01T10:05:06.000Z,215
2016-04-01T10:06:06.018Z,215
2016-04-01T10:07:06.005Z,220
2016-04-01T10:08:06.571Z,225
2016-04-01T10:09:06.058Z,230
2016-04-01T10:10:06.061Z,230
2016-04-01T10:11:06.048Z,230
2016-04-01T10:12:06.035Z,230
2016-04-01T10:13:06.053Z,235
2016-04-01T10:14:06.040Z,240
2016-04-01T10:15:06.043Z,245
2016-04-01T10:16:06.045Z,245
2016-04-01T10:17:06.048Z,245
2016-04-01T10:18:06.051Z,240
2016-04-01T10:19:06.054Z,230
2016-04-01T10:20:06.057Z,225
2016-04-01T10:21:06.090Z,235
2016-04-01T10:22:06.062Z,235
2016-04-01T10:23:06.064Z,235
2016-04-01T10:24:06.067Z,225
2016-04-01T10:25:06.070Z,215
2016-04-01T10:26:06.072Z,200
2016-04-01T10:27:06.090Z,165
2016-04-01T10:28:06.108Z,170
2016-04-01T10:29:06.112Z,175
2016-04-01T10:30:06.114Z,170
2016-04-01T10:31:06.148Z,170
2016-04-01T10:32:06.103Z,160
2016-04-01T10:33:06.106Z,155
2016-04-01T10:34:06.109Z,145
2016-04-01T10:35:06.112Z,140
2016-04-01T10:36:06.115Z,135
2016-04-01T10:37:06.118Z,125
2016-04-01T10:38:06.136Z,115
2016-04-01T10:39:06.139Z,115
2016-04-01T10:40:06.141Z,105
2016-04-01T10:41:06.160Z,95
2016-04-01T10:42:06.209Z,95
2016-04-01T10:43:06.165Z,95
2016-04-01T10:44:06.168Z,90
2016-04-01T10:45:06.186Z,90
2016-04-01T10:46:06.189Z,95
2016-04-01T10:47:06.160Z,80
2016-04-01T10:48:06.179Z,75
2016-04-01T10:49:06.165Z,70
2016-04-01T10:50:06.168Z,75
2016-04-01T10:51:06.170Z,65
2016-04-01T10:52:06.173Z,65
2016-04-01T10:53:06.176Z,70
2016-04-01T10:54:06.179Z,60
2016-04-01T10:55:06.198Z,55
2016-04-01T10:56:06.200Z,50
2016-04-01T10:57:06.265Z,45
2016-04-01T10:58:06.205Z,45
2016-04-01T10:59:06.208Z,50
2016-04-01T11:00:06.211Z,50
2016-04-01T11:01:06.214Z,45
2016-04-01T11:02:06.231Z,40
2016-04-01T11:03:06.234Z,40
2016-04-01T11:04:06.206Z,40
2016-04-01T11:05:06.208Z,40
2016-04-01T11:06:06.227Z,40
2016-04-01T11:07:06.213Z,45
2016-04-01T11:08:06.225Z,40
2016-04-01T11:09:06.228Z,40
2016-04-01T11:10:06.231Z,40
2016-04-01T11:11:06.234Z,40
2016-04-01T11:12:06.236Z,40
2016-04-01T11:13:06.239Z,40
2016-04-01T11:14:06.241Z,45
2016-04-01T11:15:06.244Z,40
2016-04-01T11:16:06.247Z,45
2016-04-01T11:17:06.234Z,45
2016-04-01T11:18:06.253Z,45
2016-04-01T11:19:06.239Z,45
2016-04-01T11:20:06.242Z,40
2016-04-01T11:21:06.260Z,45
2016-04-01T11:22:06.263Z,45
2016-04-01T11:23:06.265Z,50
2016-04-01T11:24:06.284Z,50
2016-04-01T11:25:06.271Z,40
2016-04-01T11:26:06.258Z,40
2016-04-01T11:27:06.293Z,45
2016-04-01T11:28:06.263Z,50
2016-04-01T11:29:06.282Z,50
2016-04-01T11:30:06.284Z,60
2016-04-01T11:31:06.287Z,65
2016-04-01T11:32:06.289Z,65
2016-04-01T11:33:06.308Z,60
2016-04-01T11:34:06.295Z,55
2016-04-01T11:35:06.298Z,50
2016-04-01T11:36:06.301Z,50
2016-04-01T11:37:06.303Z,50
2016-04-01T11:38:06.290Z,50
2016-04-01T11:39:06.589Z,50
2016-04-01T11:40:06.311Z,50
2016-04-01T11:41:06.298Z,50
2016-04-01T11:42:06.333Z,50
2016-04-01T11:43:06.336Z,50
2016-04-01T11:44:06.322Z,45
2016-04-01T11:45:06.325Z,45
2016-04-01T11:46:06.344Z,50
2016-04-01T11:47:06.314Z,50
2016-04-01T11:48:06.317Z,50
2016-04-01T11:49:06.319Z,45
2016-04-01T11:50:06.355Z,45
2016-04-01T11:51:06.341Z,45
2016-04-01T11:52:06.344Z,45
2016-04-01T11:53:06.394Z,45
2016-04-01T11:54:06.349Z,45
2016-04-01T11:55:06.352Z,45
2016-04-01T11:56:06.385Z,45
2016-04-01T11:57:06.357Z,50
2016-04-01T11:58:06.343Z,50
2016-04-01T11:59:06.346Z,55
2016-04-01T12:00:06.349Z,55
2016-04-01T12:01:06.337Z,60
2016-04-01T12:02:06.371Z,60
2016-04-01T12:03:06.357Z,60
2016-04-01T12:04:06.360Z,65
2016-04-01T12:05:06.362Z,65
2016-04-01T12:06:06.365Z,65
2016-04-01T12:07:06.353Z,65
2016-04-01T12:08:06.371Z,65
2016-04-01T12:09:06.374Z,65
2016-04-01T12:10:06.361Z,65
2016-04-01T12:11:06.364Z,60
2016-04-01T12:12:06.381Z,60
2016-04-01T12:13:06.369Z,60
2016-04-01T12:14:06.386Z,60
2016-04-01T12:15:06.421Z,60
2016-04-01T12:16:06.424Z,60
2016-04-01T12:17:06.411Z,65
2016-04-01T12:18:06.398Z,70
2016-04-01T12:19:06.386Z,75
2016-04-01T12:20:06.419Z,80
2016-04-01T12:21:06.391Z,85
2016-04-01T12:22:06.393Z,90
2016-04-01T12:23:06.411Z,95
2016-04-01T12:24:06.445Z,100
2016-04-01T12:25:06.416Z,100
2016-04-01T12:26:06.435Z,105
2016-04-01T12:27:06.437Z,100
2016-04-01T12:28:06.410Z,100
2016-04-01T12:29:06.599Z,100
2016-04-01T12:30:06.446Z,100
2016-04-01T12:31:06.432Z,95
2016-04-01T12:32:06.451Z,100
2016-04-01T12:33:06.454Z,100
2016-04-01T12:34:06.426Z,100
2016-04-01T12:35:06.413Z,105
2016-04-01T12:36:06.431Z,105
2016-04-01T12:37:06.418Z,110
2016-04-01T12:38:06.451Z,110
2016-04-01T12:39:06.454Z,115
2016-04-01T12:40:06.457Z,115
2016-04-01T12:41:06.459Z,120
2016-04-01T12:42:06.447Z,125
2016-04-01T12:43:06.433Z,125
2016-04-01T12:44:06.468Z,130
2016-04-01T12:45:06.455Z,130
2016-04-01T12:46:06.473Z,125
2016-04-01T12:47:06.475Z,120
2016-04-01T12:48:06.494Z,120
2016-04-01T12:49:06.450Z,125
2016-04-01T12:50:06.452Z,130
2016-04-01T12:51:06.471Z,145
2016-04-01T12:52:06.457Z,155
2016-04-01T12:53:06.476Z,165
2016-04-01T12:54:06.479Z,170
2016-04-01T12:55:06.497Z,165
2016-04-01T12:56:06.485Z,160
2016-04-01T12:57:06.488Z,150
2016-04-01T12:58:05.740Z,145
2016-04-01T12:59:06.508Z,140
2016-04-01T13:00:06.526Z,130
2016-04-01T13:01:06.514Z,125
2016-04-01T13:02:06.516Z,120
2016-04-01T13:03:06.504Z,115
2016-04-01T13:04:06.491Z,115
2016-04-01T13:05:06.477Z,115
2016-04-01T13:06:06.496Z,110
2016-04-01T13:07:06.498Z,105
2016-04-01T13:08:06.485Z,105
2016-04-01T13:09:06.503Z,100
2016-04-01T13:10:06.522Z,100
2016-04-01T13:11:06.556Z,105
2016-04-01T13:12:06.512Z,105
2016-04-01T13:13:06.546Z,105
2016-04-01T13:14:06.564Z,100
2016-04-01T13:15:06.551Z,100
2016-04-01T13:16:06.538Z,95
2016-04-01T13:17:06.525Z,90
2016-04-01T13:18:06.512Z,85
2016-04-01T13:19:06.530Z,85
2016-04-01T13:20:06.549Z,85
2016-04-01T13:21:06.535Z,85
2016-04-01T13:22:06.523Z,85
2016-04-01T13:23:06.557Z,85
2016-04-01T13:24:06.544Z,85
2016-04-01T13:25:06.546Z,85
2016-04-01T13:26:06.549Z,85
2016-04-01T13:27:06.536Z,80
2016-04-01T13:28:06.555Z,80
2016-04-01T13:29:06.542Z,80
2016-04-01T13:30:06.545Z,80
2016-04-01T13:31:06.547Z,80
2016-04-01T13:32:06.535Z,80
2016-04-01T13:33:06.568Z,85
2016-04-01T13:34:06.555Z,90
2016-04-01T13:35:06.557Z,95
2016-04-01T13:36:06.576Z,100
2016-04-01T13:37:06.563Z,110
2016-04-01T13:38:06.565Z,115
2016-04-01T13:39:06.569Z,125
2016-04-01T13:40:06.571Z,130
2016-04-01T13:41:06.574Z,130
2016-04-01T13:42:06.576Z,135
2016-04-01T13:43:06.595Z,140
2016-04-01T13:44:06.598Z,145
2016-04-01T13:45:06.584Z,140
2016-04-01T13:46:06.587Z,135
2016-04-01T13:47:06.589Z,135
2016-04-01T13:48:06.608Z,135
2016-04-01T13:49:06.595Z,135
2016-04-01T13:50:06.442Z,135
2016-04-01T13:51:06.601Z,130
2016-04-01T13:52:06.603Z,125
2016-04-01T13:53:06.606Z,120
2016-04-01T13:54:06.608Z,115
2016-04-01T13:55:06.628Z,115
2016-04-01T13:56:06.614Z,115
2016-04-01T13:57:06.617Z,115
2016-04-01T13:58:06.636Z,125
2016-04-01T13:59:06.607Z,140
2016-04-01T14:00:06.641Z,145
2016-04-01T14:01:06.643Z,150
2016-04-01T14:02:06.646Z,155
2016-04-01T14:03:06.664Z,155
2016-04-01T14:04:06.635Z,155
2016-04-01T14:05:06.623Z,155
2016-04-01T14:06:06.641Z,150
2016-04-01T14:07:06.644Z,150
2016-04-01T14:08:06.647Z,150
2016-04-01T14:09:06.649Z,150
2016-04-01T14:10:06.652Z,145
2016-04-01T14:11:06.654Z,135
2016-04-01T14:12:06.704Z,125
2016-04-01T14:13:06.644Z,120
2016-04-01T14:14:06.647Z,115
2016-04-01T14:15:06.650Z,115
2016-04-01T14:16:06.762Z,110
2016-04-01T14:17:06.656Z,110
2016-04-01T14:18:06.673Z,115